• pl
  • eng

Awiacja
Military airports TAF 04:30 20.10.2017

TAF EPCE 200200Z 2003/2012 12008KT 9999 BKN012 PROB40 2003/2008
3000 BR BKN003 =

TAF EPDA 200200Z 2003/2012 13008KT 9999 BKN015 PROB40 TEMPO
2003/2012 BKN007 =

TAF COR EPDE 200200Z 2003/2012 10006KT 5000 BR SCT010 BKN030 PROB30
2004/2006 1500 BR BKN007 OVC020=

TAF EPKS 200200Z 2003/2012 12003KT 0600 FG BKN002 TEMPO 2003/2006
0200 FG OVC001 BECMG 2008/2010 5000 BR NSC=

TAF EPLY 200200Z 2003/2012 16004KT 0500 FG BKN002 BECMG 2007/2009
4000 BR SCT007 BKN015=

TAF EPMB 200200Z 2003/2012 09006KT 9999 SCT030 BKN070 PROB40
2003/2009 BKN005 PROB30 2003/2006 3000 BR=

TAF EPMI 200200Z 2003/2012 12006KT 3000 MIFG BR BKN004 PROB40
2003/2007 0500 FG OVC002 BECMG 2008/2010 7000 BKN015 =

TAF EPMI 161100Z 24008KT CAVOK BECMG 1616/1618 2000 MIFG BR PROB40
1620/1621 0500 FG OVC002 =

TAF EPMM 200200Z 2003/2012 09006KT 7000 BKN020 TEMPO 2003/2006 3000
BR PROB40 TEMPO 2003/2006 1500 BR BKN004 BECMG 2009/2012 14008KT
=

TAF EPOK 200200Z 2003/2012 13008KT 9999 BKN009 PROB40 2003/2006
5000 BR BKN006 BECMG 2006/2008 3000 BR BKN004 =

TAF EPPW 200200Z 2003/2012 14006KT 1500 BR BKN006 PROB40 2003/2007
0500 FG BKN003 BECMG 2007/2009 6000 SCT005 BKN012 =

TAF EPSN 200200Z 2003/2012 13006KT 5000 BR SCT013 TEMPO 2003/2006
BKN005 BECMG 2006/2008 9999 BKN013 BECMG 2009/2011 CAVOK =

TAF EPTM 200200Z 2003/2012 13004KT 0500 FG BKN002
BECMG 2007/2009 4000 BR SCT008 BKN015 =
Awiacja.imgw.pl jest pogodowym serwisem informacyjnym
Instytutu Meteorologii i Gospodarki Wodnej Państwowego Instytutu Badawczego.
Copyright IMGW PIB 2009-2011© Wszelkie prawa zastrzeżone.